EDBJ weather

Jena-Schöngleina Airfield
Jena, Thuringia, Germany

Public forecast

Using degrees Celsius for public forecast. Weather courtesy of forecast.io.

METAR (pilot weather report)

Closest report is Erfurt Airport, 28.9 nm (53.5 km) W. Retrieved 2019/09/21 01:20 UTC (8 minutes ago):

EDDE 210120Z 20009KT CAVOK 08/03 Q1025

TAF (pilot weather forecast)

Forecast is more than 12 hours old.

Closest forecast is Erfurt Airport, 28.9 nm (53.5 km) W. Retrieved 2019/09/20 00:27 UTC (1 day ago):

TAF TAF EDDE 202300Z 2100/2124 19004KT CAVOK BECMG 2108/2111 09005KT BECMG 2118/2121 18005KT